createdAt,value
2017-02-14T00:00:01.800Z,10.75
2017-02-14T00:00:42.293Z,10.75
2017-02-14T00:01:22.785Z,10.65
2017-02-14T00:02:03.272Z,10.65
2017-02-14T00:02:43.772Z,10.46
2017-02-14T00:03:24.255Z,10.94
2017-02-14T00:04:04.753Z,10.46
2017-02-14T00:04:45.243Z,10.85
2017-02-14T00:05:25.735Z,10.46
2017-02-14T00:06:06.228Z,10.55
2017-02-14T00:06:46.713Z,10.85
2017-02-14T00:07:27.210Z,10.65
2017-02-14T00:08:07.717Z,10.85
2017-02-14T00:08:48.212Z,10.85
2017-02-14T00:09:28.692Z,10.65
2017-02-14T00:10:09.197Z,10.85
2017-02-14T00:10:49.688Z,10.55
2017-02-14T00:11:30.200Z,10.85
2017-02-14T00:12:10.684Z,10.65
2017-02-14T00:12:51.177Z,10.65
2017-02-14T00:13:31.684Z,10.85
2017-02-14T00:14:12.191Z,10.55
2017-02-14T00:14:52.681Z,10.65
2017-02-14T00:15:33.177Z,10.85
2017-02-14T00:16:13.672Z,10.85
2017-02-14T00:16:54.138Z,10.85
2017-02-14T00:17:34.640Z,10.75
2017-02-14T00:18:15.129Z,10.75
2017-02-14T00:18:55.641Z,10.46
2017-02-14T00:19:36.129Z,10.75
2017-02-14T00:20:16.621Z,10.65
2017-02-14T00:20:57.126Z,10.65
2017-02-14T00:21:37.623Z,10.55
2017-02-14T00:22:18.124Z,10.65
2017-02-14T00:22:58.618Z,10.55
2017-02-14T00:23:39.102Z,10.65
2017-02-14T00:24:19.602Z,10.85
2017-02-14T00:25:00.093Z,10.65
2017-02-14T00:25:40.572Z,10.85
2017-02-14T00:26:21.091Z,10.75
2017-02-14T00:27:01.579Z,10.75
2017-02-14T00:27:42.078Z,10.65
2017-02-14T00:28:22.568Z,10.85
2017-02-14T00:29:03.077Z,10.65
2017-02-14T00:29:43.567Z,10.46
2017-02-14T00:30:24.077Z,10.75
2017-02-14T00:31:04.567Z,10.55
2017-02-14T00:31:45.060Z,10.55
2017-02-14T00:32:25.556Z,10.46
2017-02-14T00:33:06.037Z,10.85
2017-02-14T00:33:46.542Z,10.46
2017-02-14T00:34:27.043Z,10.65
2017-02-14T00:35:07.528Z,10.65
2017-02-14T00:35:48.011Z,10.65
2017-02-14T00:36:28.519Z,10.55
2017-02-14T00:37:09.008Z,10.65
2017-02-14T00:37:49.516Z,10.75
2017-02-14T00:38:30.009Z,10.65
2017-02-14T00:39:10.550Z,10.65
2017-02-14T00:39:51.006Z,10.27
2017-02-14T00:40:31.518Z,10.75
2017-02-14T00:41:12.009Z,10.36
2017-02-14T00:41:52.531Z,10.75
2017-02-14T00:42:33.018Z,10.46
2017-02-14T00:43:13.517Z,10.55
2017-02-14T00:43:54.002Z,10.55
2017-02-14T00:44:34.498Z,10.75
2017-02-14T00:45:15.004Z,10.75
2017-02-14T00:45:55.509Z,10.65
2017-02-14T00:46:36.003Z,10.65
2017-02-14T00:47:16.497Z,10.65
2017-02-14T00:47:56.987Z,10.65
2017-02-14T00:48:37.477Z,10.75
2017-02-14T00:49:17.966Z,10.55
2017-02-14T00:49:58.458Z,10.65
2017-02-14T00:50:38.956Z,10.55
2017-02-14T00:51:19.442Z,10.75
2017-02-14T00:51:59.943Z,10.75
2017-02-14T00:52:40.421Z,10.75
2017-02-14T00:53:20.930Z,10.55
2017-02-14T00:54:01.417Z,10.75
2017-02-14T00:54:41.900Z,10.75
2017-02-14T00:55:22.401Z,10.65
2017-02-14T00:56:02.886Z,10.65
2017-02-14T00:56:43.382Z,10.55
2017-02-14T00:57:23.877Z,10.65
2017-02-14T00:58:04.354Z,10.74
2017-02-14T00:58:44.843Z,10.85
2017-02-14T00:59:25.335Z,10.75
2017-02-14T01:00:05.829Z,10.75
2017-02-14T01:00:46.330Z,10.46
2017-02-14T01:01:26.828Z,10.55
2017-02-14T01:02:07.326Z,10.46
2017-02-14T01:02:47.806Z,10.46
2017-02-14T01:03:28.306Z,10.55
2017-02-14T01:04:08.807Z,10.46
2017-02-14T01:04:49.301Z,10.55
2017-02-14T01:05:29.792Z,10.46
2017-02-14T01:06:10.284Z,10.46
2017-02-14T01:06:50.774Z,10.65
2017-02-14T01:07:31.283Z,10.65
2017-02-14T01:08:11.776Z,10.65
2017-02-14T01:08:52.267Z,10.55
2017-02-14T01:09:32.751Z,10.55
2017-02-14T01:10:13.248Z,10.55
2017-02-14T01:10:53.748Z,10.36
2017-02-14T01:11:34.233Z,10.36
2017-02-14T01:12:14.732Z,10.36
2017-02-14T01:12:55.219Z,10.36
2017-02-14T01:13:35.715Z,10.46
2017-02-14T01:14:16.195Z,10.55
2017-02-14T01:14:56.684Z,10.55
2017-02-14T01:15:37.177Z,10.55
2017-02-14T01:16:17.668Z,10.46
2017-02-14T01:16:58.160Z,10.46
2017-02-14T01:17:38.641Z,10.65
2017-02-14T01:18:19.123Z,10.65
2017-02-14T01:18:59.621Z,10.55
2017-02-14T01:19:40.115Z,10.55
2017-02-14T01:20:20.619Z,10.55
2017-02-14T01:21:01.111Z,10.64
2017-02-14T01:21:41.604Z,10.65
2017-02-14T01:22:22.086Z,10.75
2017-02-14T01:23:02.579Z,10.65
2017-02-14T01:23:43.068Z,10.64
2017-02-14T01:24:23.553Z,10.65
2017-02-14T01:25:04.050Z,10.65
2017-02-14T01:25:44.544Z,10.55
2017-02-14T01:26:25.036Z,10.65
2017-02-14T01:27:05.531Z,10.65
2017-02-14T01:27:46.014Z,10.55
2017-02-14T01:28:26.508Z,10.55
2017-02-14T01:29:06.999Z,10.55
2017-02-14T01:29:47.491Z,10.65
2017-02-14T01:30:27.990Z,10.46
2017-02-14T01:31:08.477Z,10.55
2017-02-14T01:31:48.969Z,10.55
2017-02-14T01:32:29.461Z,10.75
2017-02-14T01:33:09.956Z,10.65
2017-02-14T01:33:50.445Z,10.55
2017-02-14T01:34:30.941Z,10.65
2017-02-14T01:35:11.443Z,10.65
2017-02-14T01:35:51.934Z,10.65
2017-02-14T01:36:32.422Z,10.65
2017-02-14T01:37:12.919Z,10.75
2017-02-14T01:37:53.409Z,10.75
2017-02-14T01:38:33.891Z,10.65
2017-02-14T01:39:14.388Z,10.65
2017-02-14T01:39:54.884Z,10.64
2017-02-14T01:40:35.399Z,10.55
2017-02-14T01:41:15.885Z,10.65
2017-02-14T01:41:56.393Z,10.55
2017-02-14T01:42:36.884Z,10.65
2017-02-14T01:43:17.380Z,10.65
2017-02-14T01:43:57.889Z,10.65
2017-02-14T01:44:38.391Z,10.46
2017-02-14T01:45:18.885Z,10.55
2017-02-14T01:45:59.391Z,10.75
2017-02-14T01:46:39.882Z,10.55
2017-02-14T01:47:20.377Z,10.74
2017-02-14T01:48:00.882Z,10.55
2017-02-14T01:48:41.377Z,10.65
2017-02-14T01:49:21.860Z,10.65
2017-02-14T01:50:02.334Z,10.64
2017-02-14T01:50:42.836Z,10.55
2017-02-14T01:51:23.326Z,10.64
2017-02-14T01:52:03.820Z,10.36
2017-02-14T01:52:44.318Z,10.55
2017-02-14T01:53:24.786Z,10.46
2017-02-14T01:54:05.281Z,10.36
2017-02-14T01:54:45.772Z,10.46
2017-02-14T01:55:26.291Z,10.65
2017-02-14T01:56:06.763Z,10.65
2017-02-14T01:56:47.252Z,10.65
2017-02-14T01:57:27.734Z,10.65
2017-02-14T01:58:08.220Z,10.55
2017-02-14T01:58:48.714Z,10.46
2017-02-14T01:59:29.197Z,10.46
2017-02-14T02:00:09.695Z,10.46
2017-02-14T02:00:50.365Z,10.46
2017-02-14T02:01:30.845Z,10.46
2017-02-14T02:02:11.331Z,10.36
2017-02-14T02:02:51.836Z,10.46
2017-02-14T02:03:32.328Z,10.46
2017-02-14T02:04:12.823Z,10.46
2017-02-14T02:04:53.309Z,10.46
2017-02-14T02:05:33.823Z,10.46
2017-02-14T02:06:14.889Z,10.36
2017-02-14T02:06:54.793Z,10.55
2017-02-14T02:07:35.284Z,10.64
2017-02-14T02:08:15.783Z,10.55
2017-02-14T02:08:56.288Z,10.55
2017-02-14T02:09:36.785Z,10.55
2017-02-14T02:10:17.276Z,10.55
2017-02-14T02:10:57.760Z,10.46
2017-02-14T02:11:38.265Z,10.55
2017-02-14T02:12:18.754Z,10.55
2017-02-14T02:12:59.246Z,10.65
2017-02-14T02:13:39.747Z,10.55
2017-02-14T02:14:20.220Z,10.55
2017-02-14T02:15:00.749Z,10.46
2017-02-14T02:15:41.204Z,10.55
2017-02-14T02:16:21.696Z,10.46
2017-02-14T02:17:02.199Z,10.55
2017-02-14T02:17:42.714Z,10.55
2017-02-14T02:18:23.200Z,10.55
2017-02-14T02:19:03.719Z,10.55
2017-02-14T02:19:44.205Z,10.46
2017-02-14T02:20:24.716Z,10.64
2017-02-14T02:21:05.205Z,10.64
2017-02-14T02:21:45.710Z,10.36
2017-02-14T02:22:26.196Z,10.26
2017-02-14T02:23:06.690Z,10.46
2017-02-14T02:23:47.190Z,10.46
2017-02-14T02:24:27.672Z,10.26
2017-02-14T02:25:08.171Z,10.55
2017-02-14T02:25:48.653Z,10.36
2017-02-14T02:26:29.151Z,10.26
2017-02-14T02:27:09.639Z,10.46
2017-02-14T02:27:50.134Z,10.55
2017-02-14T02:28:30.630Z,10.46
2017-02-14T02:29:11.111Z,10.46
2017-02-14T02:29:51.612Z,10.46
2017-02-14T02:30:32.108Z,10.46
2017-02-14T02:31:12.598Z,10.36
2017-02-14T02:31:53.087Z,10.46
2017-02-14T02:32:33.591Z,10.46
2017-02-14T02:33:14.082Z,10.55
2017-02-14T02:33:54.605Z,10.46
2017-02-14T02:34:35.101Z,10.55
2017-02-14T02:35:15.591Z,10.55
2017-02-14T02:35:56.097Z,10.46
2017-02-14T02:36:36.593Z,10.46
2017-02-14T02:37:17.083Z,10.36
2017-02-14T02:37:57.576Z,10.26
2017-02-14T02:38:38.056Z,10.46
2017-02-14T02:39:18.545Z,10.46
2017-02-14T02:39:59.034Z,10.46
2017-02-14T02:40:39.524Z,10.36
2017-02-14T02:41:20.043Z,10.46
2017-02-14T02:42:00.529Z,10.36
2017-02-14T02:42:41.034Z,10.46
2017-02-14T02:43:21.524Z,10.46
2017-02-14T02:44:02.026Z,10.46
2017-02-14T02:44:42.501Z,10.46
2017-02-14T02:45:22.988Z,10.46
2017-02-14T02:46:03.480Z,10.36
2017-02-14T02:46:43.976Z,10.46
2017-02-14T02:47:24.464Z,10.07
2017-02-14T02:48:04.968Z,10.36
2017-02-14T02:48:45.470Z,10.36
2017-02-14T02:49:25.962Z,10.36
2017-02-14T02:50:06.483Z,10.46
2017-02-14T02:50:46.943Z,10.26
2017-02-14T02:51:27.429Z,10.26
2017-02-14T02:52:07.925Z,10.46
2017-02-14T02:52:48.420Z,10.36
2017-02-14T02:53:28.920Z,10.36
2017-02-14T02:54:09.409Z,10.36
2017-02-14T02:54:49.901Z,10.36
2017-02-14T02:55:30.386Z,10.26
2017-02-14T02:56:10.865Z,10.36
2017-02-14T02:56:51.367Z,10.36
2017-02-14T02:57:31.858Z,10.26
2017-02-14T02:59:19.355Z,9.97
2017-02-14T02:59:59.828Z,10.07
2017-02-14T03:00:40.319Z,9.88
2017-02-14T03:01:20.802Z,9.97
2017-02-14T03:02:01.276Z,10.46
2017-02-14T03:02:41.782Z,10.26
2017-02-14T03:03:22.271Z,9.97
2017-02-14T03:04:02.796Z,9.88
2017-02-14T03:04:43.248Z,9.88
2017-02-14T03:05:23.740Z,10.07
2017-02-14T03:06:04.232Z,10.07
2017-02-14T03:06:44.717Z,9.97
2017-02-14T03:07:25.223Z,10.46
2017-02-14T03:08:05.716Z,10.26
2017-02-14T03:08:46.212Z,10.46
2017-02-14T03:09:26.690Z,9.88
2017-02-14T03:10:07.174Z,9.88
2017-02-14T03:10:47.674Z,10.07
2017-02-14T03:11:28.163Z,9.97
2017-02-14T03:12:08.672Z,10.07
2017-02-14T03:12:49.160Z,9.97
2017-02-14T03:13:29.653Z,10.17
2017-02-14T03:14:10.137Z,9.97
2017-02-14T03:14:50.624Z,10.17
2017-02-14T03:15:31.115Z,10.17
2017-02-14T03:16:11.604Z,10.17
2017-02-14T03:16:52.104Z,10.07
2017-02-14T03:17:32.600Z,9.97
2017-02-14T03:18:13.098Z,10.07
2017-02-14T03:18:53.578Z,9.97
2017-02-14T03:19:34.063Z,10.17
2017-02-14T03:20:14.559Z,10.17
2017-02-14T03:20:55.051Z,9.97
2017-02-14T03:21:35.546Z,10.07
2017-02-14T03:22:16.048Z,10.07
2017-02-14T03:22:56.545Z,10.17
2017-02-14T03:23:37.050Z,10.07
2017-02-14T03:24:17.539Z,9.97
2017-02-14T03:24:58.039Z,10.07
2017-02-14T03:25:38.501Z,10.07
2017-02-14T03:26:19.009Z,10.17
2017-02-14T03:26:59.620Z,9.97
2017-02-14T03:27:40.116Z,10.07
2017-02-14T03:28:20.598Z,10.17
2017-02-14T03:29:01.103Z,10.07
2017-02-14T03:29:41.596Z,10.07
2017-02-14T03:30:22.086Z,10.07
2017-02-14T03:31:02.570Z,10.07
2017-02-14T03:31:43.061Z,10.07
2017-02-14T03:32:23.567Z,9.97
2017-02-14T03:33:04.048Z,10.07
2017-02-14T03:33:44.546Z,10.07
2017-02-14T03:34:25.038Z,10.07
2017-02-14T03:35:05.549Z,10.17
2017-02-14T03:35:46.037Z,10.17
2017-02-14T03:36:26.549Z,9.97
2017-02-14T03:37:07.038Z,10.26
2017-02-14T03:37:47.526Z,10.17
2017-02-14T03:38:28.009Z,10.17
2017-02-14T03:39:08.492Z,10.17
2017-02-14T03:39:48.991Z,9.97
2017-02-14T03:40:29.479Z,10.07
2017-02-14T03:41:09.972Z,10.07
2017-02-14T03:41:50.457Z,10.17
2017-02-14T03:42:30.953Z,10.17
2017-02-14T03:43:11.459Z,9.97
2017-02-14T03:43:51.936Z,10.17
2017-02-14T03:44:32.434Z,9.97
2017-02-14T03:45:12.926Z,10.17
2017-02-14T03:45:53.442Z,10.17
2017-02-14T03:46:33.928Z,9.97
2017-02-14T03:47:14.431Z,10.07
2017-02-14T03:47:54.919Z,10.17
2017-02-14T03:48:35.437Z,10.26
2017-02-14T03:49:16.043Z,10.17
2017-02-14T03:49:56.551Z,10.17
2017-02-14T03:50:37.051Z,10.36
2017-02-14T03:51:17.549Z,10.17
2017-02-14T03:51:58.859Z,9.97
2017-02-14T03:52:39.336Z,9.88
2017-02-14T03:53:19.837Z,9.97
2017-02-14T03:54:00.316Z,9.97
2017-02-14T03:54:40.803Z,9.97
2017-02-14T03:55:21.289Z,9.97
2017-02-14T03:56:01.794Z,9.97
2017-02-14T03:56:42.284Z,9.97
2017-02-14T03:57:22.802Z,9.69
2017-02-14T03:58:03.278Z,9.97
2017-02-14T03:58:43.752Z,9.97
2017-02-14T03:59:24.260Z,9.88
2017-02-14T04:00:04.748Z,10.07
2017-02-14T04:00:45.240Z,10.26
2017-02-14T04:01:25.729Z,10.07
2017-02-14T04:02:06.225Z,9.97
2017-02-14T04:02:46.703Z,9.88
2017-02-14T04:03:27.180Z,9.88
2017-02-14T04:04:07.674Z,9.97
2017-02-14T04:04:48.152Z,9.97
2017-02-14T04:05:28.653Z,9.97
2017-02-14T04:06:09.138Z,9.97
2017-02-14T04:06:49.628Z,9.97
2017-02-14T04:07:30.119Z,9.88
2017-02-14T04:08:10.616Z,9.88
2017-02-14T04:08:51.128Z,9.97
2017-02-14T04:09:31.618Z,9.78
2017-02-14T04:10:12.112Z,9.88
2017-02-14T04:10:52.596Z,9.97
2017-02-14T04:11:33.091Z,9.97
2017-02-14T04:12:13.581Z,10.07
2017-02-14T04:12:54.066Z,9.97
2017-02-14T04:13:34.563Z,10.26
2017-02-14T04:14:15.061Z,10.17
2017-02-14T04:14:55.592Z,10.26
2017-02-14T04:15:36.062Z,10.36
2017-02-14T04:16:16.583Z,9.97
2017-02-14T04:16:57.064Z,9.97
2017-02-14T04:17:37.558Z,9.88
2017-02-14T04:18:18.055Z,9.78
2017-02-14T04:18:58.567Z,9.78
2017-02-14T04:19:39.031Z,9.97
2017-02-14T04:20:19.523Z,9.97
2017-02-14T04:21:00.016Z,9.97
2017-02-14T04:21:40.506Z,9.78
2017-02-14T04:22:21.007Z,9.88
2017-02-14T04:23:01.501Z,9.78
2017-02-14T04:23:41.987Z,9.78
2017-02-14T04:24:22.474Z,9.97
2017-02-14T04:25:02.953Z,9.78
2017-02-14T04:25:43.445Z,9.88
2017-02-14T04:26:23.928Z,9.78
2017-02-14T04:27:04.451Z,9.97
2017-02-14T04:27:44.926Z,9.78
2017-02-14T04:28:25.426Z,9.97
2017-02-14T04:29:05.917Z,9.97
2017-02-14T04:29:46.399Z,9.78
2017-02-14T04:30:26.890Z,9.88
2017-02-14T04:31:07.390Z,9.78
2017-02-14T04:31:47.908Z,9.97
2017-02-14T04:32:28.395Z,9.97
2017-02-14T04:33:08.890Z,9.97
2017-02-14T04:33:49.393Z,9.97
2017-02-14T04:34:29.890Z,9.97
2017-02-14T04:35:10.389Z,9.97
2017-02-14T04:35:50.873Z,9.97
2017-02-14T04:36:31.362Z,9.88
2017-02-14T04:37:11.844Z,9.78
2017-02-14T04:37:52.341Z,9.97
2017-02-14T04:38:32.828Z,9.78
2017-02-14T04:39:13.325Z,9.78
2017-02-14T04:39:53.810Z,9.78
2017-02-14T04:40:34.312Z,9.78
2017-02-14T04:41:14.792Z,9.88
2017-02-14T04:41:55.283Z,9.88
2017-02-14T04:42:35.775Z,9.78
2017-02-14T04:43:16.258Z,9.78
2017-02-14T04:43:56.739Z,9.78
2017-02-14T04:44:37.237Z,9.78
2017-02-14T04:45:17.730Z,9.78
2017-02-14T04:45:58.223Z,9.78
2017-02-14T04:46:38.704Z,9.78
2017-02-14T04:47:19.207Z,9.78
2017-02-14T04:47:59.704Z,9.78
2017-02-14T04:48:40.182Z,9.88
2017-02-14T04:49:20.671Z,9.78
2017-02-14T04:50:01.152Z,9.88
2017-02-14T04:50:41.643Z,9.88
2017-02-14T04:51:22.132Z,9.88
2017-02-14T04:52:02.622Z,9.78
2017-02-14T04:52:43.120Z,9.78
2017-02-14T04:53:23.725Z,9.69
2017-02-14T04:54:04.235Z,9.88
2017-02-14T04:54:44.718Z,9.88
2017-02-14T04:55:25.233Z,9.88
2017-02-14T04:56:05.721Z,9.88
2017-02-14T04:56:46.234Z,9.78
2017-02-14T04:57:26.719Z,9.78
2017-02-14T04:58:07.230Z,9.78
2017-02-14T04:58:47.717Z,9.78
2017-02-14T04:59:28.214Z,9.78
2017-02-14T05:00:08.719Z,9.88
2017-02-14T05:00:49.226Z,9.88
2017-02-14T05:01:29.715Z,9.88
2017-02-14T05:02:10.211Z,9.59
2017-02-14T05:02:50.705Z,9.78
2017-02-14T05:03:31.182Z,9.78
2017-02-14T05:04:11.671Z,9.78
2017-02-14T05:04:52.159Z,9.78
2017-02-14T05:05:32.674Z,9.78
2017-02-14T05:06:13.160Z,9.69
2017-02-14T05:06:53.656Z,9.59
2017-02-14T05:07:34.156Z,9.59
2017-02-14T05:08:14.665Z,9.5
2017-02-14T05:08:55.157Z,9.59
2017-02-14T05:09:35.648Z,9.78
2017-02-14T05:10:16.146Z,9.59
2017-02-14T05:10:56.622Z,9.78
2017-02-14T05:11:37.117Z,9.69
2017-02-14T05:12:17.599Z,9.78
2017-02-14T05:12:58.097Z,9.59
2017-02-14T05:13:38.579Z,9.5
2017-02-14T05:14:19.069Z,9.69
2017-02-14T05:14:59.560Z,9.59
2017-02-14T05:15:40.047Z,9.69
2017-02-14T05:16:20.547Z,9.69
2017-02-14T05:17:01.045Z,9.59
2017-02-14T05:17:41.542Z,9.59
2017-02-14T05:18:22.024Z,9.59
2017-02-14T05:19:02.521Z,9.59
2017-02-14T05:19:43.021Z,9.69
2017-02-14T05:20:23.499Z,9.78
2017-02-14T05:21:04.002Z,9.69
2017-02-14T05:21:44.488Z,9.69
2017-02-14T05:22:24.991Z,9.69
2017-02-14T05:23:05.489Z,9.59
2017-02-14T05:23:46.000Z,9.78
2017-02-14T05:24:26.490Z,9.78
2017-02-14T05:25:06.987Z,9.69
2017-02-14T05:25:47.467Z,9.69
2017-02-14T05:26:27.960Z,9.59
2017-02-14T05:27:08.461Z,9.69
2017-02-14T05:27:48.943Z,9.59
2017-02-14T05:28:29.429Z,9.78
2017-02-14T05:29:09.911Z,9.69
2017-02-14T05:29:50.398Z,9.69
2017-02-14T05:30:30.889Z,9.59
2017-02-14T05:31:11.380Z,9.78
2017-02-14T05:31:51.896Z,9.78
2017-02-14T05:32:32.379Z,9.78
2017-02-14T05:33:12.887Z,9.69
2017-02-14T05:33:53.479Z,9.78
2017-02-14T05:34:33.977Z,9.69
2017-02-14T05:35:14.469Z,9.59
2017-02-14T05:35:54.943Z,9.78
2017-02-14T05:36:35.436Z,9.69
2017-02-14T05:37:15.925Z,9.78
2017-02-14T05:37:56.439Z,9.69
2017-02-14T05:38:36.926Z,9.78
2017-02-14T05:39:17.436Z,9.78
2017-02-14T05:39:57.925Z,9.69
2017-02-14T05:40:38.423Z,9.78
2017-02-14T05:41:18.911Z,9.78
2017-02-14T05:41:59.401Z,9.69
2017-02-14T05:42:39.899Z,9.78
2017-02-14T05:43:20.379Z,9.78
2017-02-14T05:44:00.882Z,9.78
2017-02-14T05:44:41.372Z,9.78
2017-02-14T05:45:21.861Z,9.78
2017-02-14T05:46:02.344Z,9.78
2017-02-14T05:46:42.835Z,9.69
2017-02-14T05:47:23.326Z,9.78
2017-02-14T05:48:03.814Z,9.78
2017-02-14T05:48:44.310Z,9.69
2017-02-14T05:49:24.791Z,9.5
2017-02-14T05:50:05.270Z,9.5
2017-02-14T05:50:45.753Z,9.69
2017-02-14T05:51:26.238Z,9.78
2017-02-14T05:52:06.733Z,9.78
2017-02-14T05:52:47.233Z,9.78
2017-02-14T05:53:27.714Z,9.59
2017-02-14T05:54:08.215Z,9.69
2017-02-14T05:54:48.704Z,9.78
2017-02-14T05:55:29.198Z,9.78
2017-02-14T05:56:09.681Z,9.78
2017-02-14T05:56:50.175Z,9.78
2017-02-14T05:57:30.665Z,9.78
2017-02-14T05:58:11.152Z,9.78
2017-02-14T05:58:51.667Z,9.78
2017-02-14T05:59:32.153Z,9.69
2017-02-14T06:00:12.644Z,9.78
2017-02-14T06:00:53.127Z,9.59
2017-02-14T06:01:33.618Z,9.5
2017-02-14T06:02:14.121Z,9.59
2017-02-14T06:02:54.601Z,9.59
2017-02-14T06:03:35.095Z,9.5
2017-02-14T06:04:15.598Z,9.5
2017-02-14T06:04:56.090Z,9.4
2017-02-14T06:05:36.586Z,9.4
2017-02-14T06:06:17.060Z,9.69
2017-02-14T06:06:57.557Z,9.59
2017-02-14T06:07:38.041Z,9.4
2017-02-14T06:08:18.551Z,9.59
2017-02-14T06:08:59.040Z,9.5
2017-02-14T06:09:39.518Z,9.59
2017-02-14T06:10:20.002Z,9.59
2017-02-14T06:11:00.491Z,9.59
2017-02-14T06:11:41.002Z,9.3
2017-02-14T06:12:21.489Z,9.5
2017-02-14T06:13:02.008Z,9.4
2017-02-14T06:13:42.500Z,9.5
2017-02-14T06:14:23.108Z,9.59
2017-02-14T06:15:03.590Z,9.59
2017-02-14T06:15:44.094Z,9.4
2017-02-14T06:16:24.585Z,9.4
2017-02-14T06:17:05.101Z,9.4
2017-02-14T06:17:45.585Z,9.4
2017-02-14T06:18:26.081Z,9.4
2017-02-14T06:19:06.560Z,9.4
2017-02-14T06:19:47.034Z,9.5
2017-02-14T06:20:27.539Z,9.59
2017-02-14T06:21:08.030Z,9.4
2017-02-14T06:21:48.548Z,9.4
2017-02-14T06:22:29.032Z,9.4
2017-02-14T06:23:09.574Z,9.5
2017-02-14T06:23:50.088Z,9.4
2017-02-14T06:24:30.578Z,9.59
2017-02-14T06:25:11.085Z,9.59
2017-02-14T06:25:51.575Z,9.59
2017-02-14T06:26:32.088Z,9.5
2017-02-14T06:27:12.576Z,9.59
2017-02-14T06:27:53.068Z,9.59
2017-02-14T06:28:33.549Z,9.3
2017-02-14T06:29:14.034Z,9.5
2017-02-14T06:29:54.564Z,9.59
2017-02-14T06:30:35.030Z,9.5
2017-02-14T06:31:15.545Z,9.59
2017-02-14T06:31:56.033Z,9.5
2017-02-14T06:32:36.529Z,9.5
2017-02-14T06:33:17.020Z,9.3
2017-02-14T06:33:57.527Z,9.3
2017-02-14T06:34:38.016Z,9.11
2017-02-14T06:35:18.523Z,9.11
2017-02-14T06:35:59.014Z,9.21
2017-02-14T06:36:39.529Z,9.11
2017-02-14T06:37:20.015Z,9.21
2017-02-14T06:38:00.565Z,9.21
2017-02-14T06:38:41.051Z,9.21
2017-02-14T06:39:21.536Z,9.21
2017-02-14T06:40:02.018Z,9.4
2017-02-14T06:40:42.523Z,9.21
2017-02-14T06:41:23.013Z,9.21
2017-02-14T06:42:03.521Z,9.21
2017-02-14T06:42:44.012Z,9.11
2017-02-14T06:43:24.505Z,9.21
2017-02-14T06:44:04.987Z,9.21
2017-02-14T06:44:45.481Z,9.4
2017-02-14T06:45:25.981Z,9.21
2017-02-14T06:46:06.460Z,9.11
2017-02-14T06:46:46.971Z,9.21
2017-02-14T06:47:27.459Z,9.3
2017-02-14T06:48:07.953Z,9.21
2017-02-14T06:48:48.459Z,9.3
2017-02-14T06:49:28.907Z,9.21
2017-02-14T06:50:09.394Z,9.11
2017-02-14T06:50:49.877Z,9.4
2017-02-14T06:51:30.371Z,9.21
2017-02-14T06:52:10.877Z,9.4
2017-02-14T06:52:51.367Z,9.3
2017-02-14T06:53:31.858Z,9.11
2017-02-14T06:54:12.347Z,9.4
2017-02-14T06:54:52.863Z,9.3
2017-02-14T06:55:33.350Z,9.3
2017-02-14T06:56:13.826Z,9.3
2017-02-14T06:56:54.320Z,9.21
2017-02-14T06:57:34.811Z,9.5
2017-02-14T06:58:15.300Z,9.21
2017-02-14T06:58:55.793Z,9.11
2017-02-14T06:59:36.315Z,9.21
2017-02-14T07:00:16.806Z,9.3
2017-02-14T07:00:57.302Z,9.3
2017-02-14T07:01:37.785Z,9.4
2017-02-14T07:02:18.270Z,9.3
2017-02-14T07:02:58.762Z,9.3
2017-02-14T07:03:39.267Z,9.4
2017-02-14T07:04:19.756Z,9.3
2017-02-14T07:05:00.247Z,9.3
2017-02-14T07:05:40.744Z,9.4
2017-02-14T07:06:21.268Z,9.3
2017-02-14T07:07:01.779Z,9.3
2017-02-14T07:07:42.251Z,9.3
2017-02-14T07:08:22.750Z,9.3
2017-02-14T07:09:03.255Z,9.3
2017-02-14T07:09:43.748Z,9.3
2017-02-14T07:10:24.232Z,9.4
2017-02-14T07:11:04.736Z,9.3
2017-02-14T07:11:45.223Z,9.3
2017-02-14T07:12:25.719Z,9.3
2017-02-14T07:13:06.222Z,9.3
2017-02-14T07:13:46.699Z,9.21
2017-02-14T07:14:27.207Z,9.3
2017-02-14T07:15:07.688Z,9.21
2017-02-14T07:15:48.187Z,9.3
2017-02-14T07:16:28.674Z,9.31
2017-02-14T07:17:09.189Z,9.3
2017-02-14T07:17:49.674Z,9.21
2017-02-14T07:18:30.178Z,9.31
2017-02-14T07:19:10.674Z,9.21
2017-02-14T07:19:51.164Z,9.41
2017-02-14T07:20:31.665Z,9.4
2017-02-14T07:21:12.164Z,9.21
2017-02-14T07:21:52.660Z,9.31
2017-02-14T07:22:33.144Z,9.31
2017-02-14T07:23:13.638Z,9.21
2017-02-14T07:23:54.124Z,9.21
2017-02-14T07:24:34.624Z,9.21
2017-02-14T07:25:15.110Z,9.31
2017-02-14T07:25:55.657Z,9.31
2017-02-14T07:26:36.172Z,9.41
2017-02-14T07:27:16.656Z,9.21
2017-02-14T07:27:57.146Z,9.02
2017-02-14T07:28:37.626Z,9.31
2017-02-14T07:29:18.111Z,9.21
2017-02-14T07:29:58.604Z,9.02
2017-02-14T07:30:39.106Z,9.31
2017-02-14T07:31:19.647Z,9.02
2017-02-14T07:32:00.112Z,9.02
2017-02-14T07:32:40.602Z,9.21
2017-02-14T07:33:21.994Z,9.12
2017-02-14T07:34:01.688Z,9.12
2017-02-14T07:34:42.174Z,9.41
2017-02-14T07:35:22.659Z,9.41
2017-02-14T07:36:03.143Z,9.31
2017-02-14T07:36:43.631Z,9.31
2017-02-14T07:37:24.102Z,9.21
2017-02-14T07:38:04.626Z,9.12
2017-02-14T07:38:45.104Z,9.31
2017-02-14T07:39:25.610Z,9.31
2017-02-14T07:40:06.137Z,9.12
2017-02-14T07:40:46.639Z,9.31
2017-02-14T07:41:27.131Z,9.31
2017-02-14T07:42:07.623Z,9.22
2017-02-14T07:42:48.112Z,9.22
2017-02-14T07:43:28.607Z,9.41
2017-02-14T07:44:09.095Z,9.31
2017-02-14T07:44:49.601Z,9.22
2017-02-14T07:45:30.323Z,9.22
2017-02-14T07:46:10.819Z,9.31
2017-02-14T07:46:51.303Z,9.41
2017-02-14T07:47:31.807Z,9.22
2017-02-14T07:48:12.458Z,9.22
2017-02-14T07:48:52.948Z,9.31
2017-02-14T07:49:33.449Z,9.22
2017-02-14T07:50:13.946Z,9.31
2017-02-14T07:50:54.457Z,9.31
2017-02-14T07:51:34.955Z,9.31
2017-02-14T07:52:15.462Z,9.22
2017-02-14T07:52:55.950Z,9.22
2017-02-14T07:53:36.440Z,9.22
2017-02-14T07:54:16.923Z,9.12
2017-02-14T07:54:57.405Z,9.22
2017-02-14T07:55:37.904Z,9.31
2017-02-14T07:56:18.392Z,9.31
2017-02-14T07:56:58.890Z,9.22
2017-02-14T07:57:39.387Z,9.31
2017-02-14T07:58:19.875Z,9.22
2017-02-14T07:59:00.366Z,9.03
2017-02-14T07:59:40.868Z,9.22
2017-02-14T08:00:21.351Z,9.31
2017-02-14T08:01:01.838Z,9.31
2017-02-14T08:01:42.335Z,9.22
2017-02-14T08:02:22.831Z,9.22
2017-02-14T08:03:03.350Z,9.22
2017-02-14T08:03:43.840Z,9.22
2017-02-14T08:04:24.345Z,9.22
2017-02-14T08:05:04.833Z,9.22
2017-02-14T08:05:45.327Z,9.31
2017-02-14T08:06:25.808Z,9.31
2017-02-14T08:07:06.289Z,9.31
2017-02-14T08:07:46.787Z,9.31
2017-02-14T08:08:27.279Z,9.31
2017-02-14T08:09:07.787Z,9.22
2017-02-14T08:09:48.279Z,9.12
2017-02-14T08:10:28.774Z,9.12
2017-02-14T08:11:09.291Z,9.22
2017-02-14T08:11:49.785Z,9.22
2017-02-14T08:12:30.274Z,9.12
2017-02-14T08:13:10.756Z,9.32
2017-02-14T08:13:51.243Z,9.22
2017-02-14T08:14:31.734Z,9.32
2017-02-14T08:15:12.228Z,9.23
2017-02-14T08:15:52.718Z,9.32
2017-02-14T08:16:33.215Z,9.13
2017-02-14T08:17:13.708Z,9.13
2017-02-14T08:17:54.196Z,8.84
2017-02-14T08:18:34.692Z,8.65
2017-02-14T08:19:15.181Z,8.75
2017-02-14T08:19:55.675Z,8.65
2017-02-14T08:20:36.175Z,8.84
2017-02-14T08:21:16.682Z,8.94
2017-02-14T08:21:57.166Z,9.03
2017-02-14T08:22:37.669Z,9.03
2017-02-14T08:23:18.161Z,8.94
2017-02-14T08:23:58.658Z,8.94
2017-02-14T08:24:39.153Z,8.75
2017-02-14T08:25:19.635Z,8.75
2017-02-14T08:26:00.129Z,8.65
2017-02-14T08:26:40.609Z,8.84
2017-02-14T08:27:21.123Z,8.75
2017-02-14T08:28:01.608Z,8.65
2017-02-14T08:28:42.112Z,8.56
2017-02-14T08:29:22.601Z,8.46
2017-02-14T08:30:03.112Z,8.46
2017-02-14T08:30:43.602Z,8.56
2017-02-14T08:31:24.743Z,8.65
2017-02-14T08:32:05.232Z,8.36
2017-02-14T08:32:45.734Z,8.36
2017-02-14T08:33:26.216Z,8.36
2017-02-14T08:34:06.713Z,8.37
2017-02-14T08:34:47.215Z,8.27
2017-02-14T08:35:27.708Z,8.27
2017-02-14T08:36:08.206Z,8.37
2017-02-14T08:36:48.680Z,8.27
2017-02-14T08:37:29.173Z,8.56
2017-02-14T08:38:09.661Z,8.47
2017-02-14T08:38:50.147Z,8.47
2017-02-14T08:39:30.638Z,8.27
2017-02-14T08:40:11.136Z,8.37
2017-02-14T08:40:51.625Z,8.37
2017-02-14T08:41:32.114Z,8.27
2017-02-14T08:42:12.616Z,8.37
2017-02-14T08:42:53.109Z,8.27
2017-02-14T08:43:33.616Z,8.18
2017-02-14T08:44:14.102Z,8.08
2017-02-14T08:44:54.598Z,7.99
2017-02-14T08:45:35.094Z,8.08
2017-02-14T08:46:15.582Z,8.18
2017-02-14T08:46:56.069Z,7.99
2017-02-14T08:47:36.555Z,8.08
2017-02-14T08:48:17.060Z,8.08
2017-02-14T08:48:57.546Z,7.99
2017-02-14T08:49:38.043Z,7.99
2017-02-14T08:50:18.544Z,7.79
2017-02-14T08:50:59.949Z,7.89
2017-02-14T08:51:40.444Z,7.79
2017-02-14T08:52:20.941Z,7.99
2017-02-14T08:53:01.444Z,8.08
2017-02-14T08:53:41.933Z,8.08